createdAt,value
2022-11-17T00:00:08.241Z,9.61
2022-11-17T00:02:37.410Z,9.61
2022-11-17T00:05:06.352Z,9.45
2022-11-17T00:07:35.603Z,9.58
2022-11-17T00:10:03.256Z,9.57
2022-11-17T00:12:48.244Z,9.39
2022-11-17T00:15:15.862Z,9.36
2022-11-17T00:17:43.746Z,9.28
2022-11-17T00:20:29.885Z,9.38
2022-11-17T00:22:58.836Z,9.32
2022-11-17T00:25:26.544Z,9.32
2022-11-17T00:27:54.374Z,9.37
2022-11-17T00:30:43.605Z,9.36
2022-11-17T00:33:28.784Z,9.43
2022-11-17T00:35:56.471Z,9.37
2022-11-17T00:38:25.463Z,9.33
2022-11-17T00:40:53.014Z,9.51
2022-11-17T00:43:20.653Z,9.42
2022-11-17T00:45:48.391Z,9.28
2022-11-17T00:48:16.743Z,9.31
2022-11-17T00:50:44.301Z,9.30
2022-11-17T00:53:12.299Z,9.28
2022-11-17T00:55:41.599Z,9.24
2022-11-17T00:58:09.190Z,9.25
2022-11-17T01:00:36.785Z,9.17
2022-11-17T01:03:04.338Z,9.15
2022-11-17T01:05:33.267Z,9.00
2022-11-17T01:08:00.941Z,9.00
2022-11-17T01:10:28.470Z,9.07
2022-11-17T01:12:57.374Z,8.98
2022-11-17T01:15:24.953Z,9.13
2022-11-17T01:17:52.620Z,9.01
2022-11-17T01:20:20.474Z,9.02
2022-11-17T01:22:48.060Z,8.98
2022-11-17T01:25:15.640Z,9.11
2022-11-17T01:27:43.201Z,9.10
2022-11-17T01:30:13.701Z,9.12
2022-11-17T01:32:41.242Z,8.97
2022-11-17T01:35:09.715Z,9.12
2022-11-17T01:37:37.315Z,9.06
2022-11-17T01:40:05.606Z,9.08
2022-11-17T01:42:33.184Z,9.11
2022-11-17T01:45:03.151Z,9.03
2022-11-17T01:47:36.665Z,8.98
2022-11-17T01:50:08.792Z,9.02
2022-11-17T01:52:38.450Z,8.91
2022-11-17T01:55:08.418Z,8.82
2022-11-17T01:57:40.567Z,9.05
2022-11-17T02:00:10.814Z,9.00
2022-11-17T02:02:40.864Z,8.90
2022-11-17T02:05:20.959Z,8.97
2022-11-17T02:07:50.932Z,8.71
2022-11-17T02:10:18.829Z,8.89
2022-11-17T02:12:46.876Z,8.94
2022-11-17T02:15:14.472Z,8.95
2022-11-17T02:17:44.720Z,8.91
2022-11-17T02:20:14.537Z,8.73
2022-11-17T02:23:08.513Z,8.67
2022-11-17T02:25:46.317Z,8.83
2022-11-17T02:28:20.620Z,8.80
2022-11-17T02:30:56.998Z,8.76
2022-11-17T02:33:29.751Z,8.60
2022-11-17T02:36:03.488Z,8.60
2022-11-17T02:38:34.198Z,8.56
2022-11-17T02:41:06.262Z,8.56
2022-11-17T02:43:55.667Z,8.68
2022-11-17T02:46:24.674Z,8.56
2022-11-17T02:48:56.205Z,8.65
2022-11-17T02:51:25.606Z,8.49
2022-11-17T02:53:54.850Z,8.55
2022-11-17T02:56:22.618Z,8.64
2022-11-17T02:58:52.801Z,8.58
2022-11-17T03:01:46.370Z,8.72
2022-11-17T03:04:40.863Z,8.80
2022-11-17T03:07:22.745Z,8.83
2022-11-17T03:09:55.239Z,8.95
2022-11-17T03:12:25.964Z,8.85
2022-11-17T03:14:59.878Z,8.91
2022-11-17T03:17:31.103Z,8.84
2022-11-17T03:20:03.259Z,8.80
2022-11-17T03:22:34.714Z,8.82
2022-11-17T03:25:04.516Z,8.88
2022-11-17T03:27:33.841Z,8.75
2022-11-17T03:30:05.955Z,8.82
2022-11-17T03:32:37.586Z,8.80
2022-11-17T03:35:08.158Z,8.80
2022-11-17T03:37:37.694Z,8.91
2022-11-17T03:40:08.695Z,8.88
2022-11-17T03:42:38.196Z,8.89
2022-11-17T03:45:12.500Z,8.89
2022-11-17T03:47:40.254Z,8.92
2022-11-17T03:50:12.071Z,8.92
2022-11-17T03:52:39.817Z,8.84
2022-11-17T03:55:08.937Z,8.79
2022-11-17T03:57:39.651Z,8.86
2022-11-17T04:00:10.959Z,9.00
2022-11-17T04:02:41.784Z,9.02
2022-11-17T04:05:09.904Z,8.90
2022-11-17T04:07:40.096Z,8.95
2022-11-17T04:10:09.771Z,8.93
2022-11-17T04:12:55.065Z,8.77
2022-11-17T04:15:47.150Z,8.86
2022-11-17T04:18:15.099Z,9.00
2022-11-17T04:20:43.172Z,9.08
2022-11-17T04:23:13.968Z,9.00
2022-11-17T04:26:00.995Z,9.11
2022-11-17T04:28:38.291Z,9.07
2022-11-17T04:31:12.497Z,9.18
2022-11-17T04:33:41.429Z,9.15
2022-11-17T04:36:09.948Z,9.16
2022-11-17T04:38:37.814Z,9.20
2022-11-17T04:41:24.897Z,9.04
2022-11-17T04:43:52.814Z,9.19
2022-11-17T04:46:23.095Z,9.16
2022-11-17T04:48:51.314Z,9.04
2022-11-17T04:51:18.861Z,9.03
2022-11-17T04:53:47.179Z,8.98
2022-11-17T04:56:15.048Z,8.90
2022-11-17T04:58:43.020Z,8.88
2022-11-17T05:01:13.888Z,8.80
2022-11-17T05:03:44.615Z,8.74
2022-11-17T05:06:13.475Z,8.73
2022-11-17T05:08:41.356Z,8.77
2022-11-17T05:11:27.613Z,8.72
2022-11-17T05:13:55.422Z,8.70
2022-11-17T05:16:41.476Z,8.81
2022-11-17T05:19:12.530Z,8.82
2022-11-17T05:21:40.147Z,8.88
2022-11-17T05:24:07.629Z,8.88
2022-11-17T05:26:37.174Z,8.70
2022-11-17T05:29:06.599Z,8.84
2022-11-17T05:31:34.725Z,8.73
2022-11-17T05:34:03.000Z,8.69
2022-11-17T05:36:32.278Z,8.68
2022-11-17T05:39:03.161Z,8.80
2022-11-17T05:41:30.826Z,8.81
2022-11-17T05:43:59.026Z,8.81
2022-11-17T05:46:27.092Z,8.80
2022-11-17T05:48:54.941Z,8.71
2022-11-17T05:51:24.293Z,8.61
2022-11-17T05:53:53.189Z,8.75
2022-11-17T05:56:29.497Z,8.85
2022-11-17T05:59:01.902Z,8.75
2022-11-17T06:01:30.326Z,8.70
2022-11-17T06:04:00.310Z,8.64
2022-11-17T06:06:28.527Z,8.64
2022-11-17T06:08:57.653Z,8.60
2022-11-17T06:11:25.214Z,8.64
2022-11-17T06:13:52.820Z,8.64
2022-11-17T06:16:23.936Z,8.85
2022-11-17T06:18:54.037Z,9.05
2022-11-17T06:21:21.738Z,8.94
2022-11-17T06:23:49.787Z,8.95
2022-11-17T06:26:18.772Z,8.89
2022-11-17T06:28:48.615Z,8.96
2022-11-17T06:31:16.706Z,8.99
2022-11-17T06:33:44.958Z,9.02
2022-11-17T06:36:12.742Z,9.00
2022-11-17T06:38:40.375Z,9.03
2022-11-17T06:41:11.811Z,8.98
2022-11-17T06:43:41.178Z,9.03
2022-11-17T06:46:08.871Z,9.00
2022-11-17T06:48:36.676Z,8.90
2022-11-17T06:51:05.927Z,9.00
2022-11-17T06:53:35.015Z,9.14
2022-11-17T06:56:08.138Z,9.08
2022-11-17T06:58:37.194Z,9.18
2022-11-17T07:01:08.226Z,9.16
2022-11-17T07:03:37.192Z,9.24
2022-11-17T07:06:06.048Z,9.26
2022-11-17T07:08:34.679Z,9.17
2022-11-17T07:11:03.623Z,9.21
2022-11-17T07:13:33.226Z,9.28
2022-11-17T07:16:06.417Z,9.26
2022-11-17T07:18:34.843Z,9.34
2022-11-17T07:21:04.233Z,9.41
2022-11-17T07:23:32.217Z,9.31
2022-11-17T07:26:00.360Z,9.27
2022-11-17T07:28:28.114Z,9.32
2022-11-17T07:30:56.396Z,9.29
2022-11-17T07:33:25.405Z,9.46
2022-11-17T07:35:53.052Z,9.61
2022-11-17T07:38:20.735Z,9.59
2022-11-17T07:40:48.396Z,9.67
2022-11-17T07:43:16.048Z,9.68
2022-11-17T07:45:43.701Z,9.67
2022-11-17T07:48:11.365Z,9.79
2022-11-17T07:50:41.586Z,9.82
2022-11-17T07:53:09.317Z,10.02
2022-11-17T07:55:36.985Z,10.10
2022-11-17T07:58:04.648Z,10.07
2022-11-17T08:00:33.690Z,9.90
2022-11-17T08:03:01.782Z,10.09
2022-11-17T08:05:30.729Z,10.11
2022-11-17T08:08:00.950Z,10.08
2022-11-17T08:10:31.262Z,10.00
2022-11-17T08:13:00.785Z,10.02
2022-11-17T08:15:29.551Z,10.19
2022-11-17T08:17:58.474Z,10.27
2022-11-17T08:20:27.708Z,10.28
2022-11-17T08:22:55.395Z,10.42
2022-11-17T08:25:26.539Z,10.49
2022-11-17T08:27:56.268Z,10.54
2022-11-17T08:30:24.394Z,10.62
2022-11-17T08:32:53.835Z,10.77
2022-11-17T08:35:23.690Z,10.74
2022-11-17T08:37:51.581Z,10.91
2022-11-17T08:40:19.427Z,10.79
2022-11-17T08:42:57.541Z,11.04
2022-11-17T08:45:28.291Z,11.24
2022-11-17T08:47:57.079Z,11.51
2022-11-17T08:50:25.141Z,11.67
2022-11-17T08:52:53.490Z,11.74
2022-11-17T08:55:21.262Z,11.86
2022-11-17T08:57:50.396Z,11.90
2022-11-17T09:00:20.604Z,11.88
2022-11-17T09:02:48.488Z,11.76
2022-11-17T09:05:16.548Z,11.80
2022-11-17T09:07:44.550Z,11.75
2022-11-17T09:10:12.901Z,11.73
2022-11-17T09:12:40.676Z,11.96
2022-11-17T09:15:10.982Z,11.98
2022-11-17T09:17:40.254Z,11.99
2022-11-17T09:20:09.002Z,11.84
2022-11-17T09:22:36.651Z,11.91
2022-11-17T09:25:07.537Z,11.99
2022-11-17T09:27:39.669Z,11.86
2022-11-17T09:30:10.672Z,11.77
2022-11-17T09:32:38.329Z,11.73
2022-11-17T09:35:09.323Z,11.70
2022-11-17T09:37:37.065Z,11.62
2022-11-17T09:40:05.199Z,11.51
2022-11-17T09:42:38.802Z,11.52
2022-11-17T09:45:12.997Z,11.50
2022-11-17T09:47:44.430Z,11.53
2022-11-17T09:50:19.725Z,11.45
2022-11-17T09:52:55.564Z,11.37
2022-11-17T09:55:32.694Z,11.46
2022-11-17T09:58:08.557Z,11.50
2022-11-17T10:00:40.062Z,11.48
2022-11-17T10:03:13.276Z,11.41
2022-11-17T10:05:40.899Z,11.45
2022-11-17T10:08:10.103Z,11.53
2022-11-17T10:10:41.034Z,11.55
2022-11-17T10:13:15.644Z,11.62
2022-11-17T10:15:48.458Z,11.87
2022-11-17T10:18:17.516Z,11.95
2022-11-17T10:20:45.653Z,11.94
2022-11-17T10:23:14.996Z,12.11
2022-11-17T10:25:44.676Z,12.08
2022-11-17T10:28:25.724Z,12.48
2022-11-17T10:30:57.259Z,12.53
2022-11-17T10:33:35.402Z,12.66
2022-11-17T10:36:04.633Z,12.64
2022-11-17T10:38:33.649Z,12.61
2022-11-17T10:41:04.002Z,12.45
2022-11-17T10:43:34.209Z,12.41
2022-11-17T10:46:05.760Z,12.24
2022-11-17T10:48:35.123Z,12.16
2022-11-17T10:51:04.468Z,12.10
2022-11-17T10:53:43.012Z,12.17
2022-11-17T10:56:14.867Z,12.14
2022-11-17T10:59:03.859Z,12.11
2022-11-17T11:01:35.204Z,12.07
2022-11-17T11:04:04.273Z,12.17
2022-11-17T11:06:33.327Z,12.17
2022-11-17T11:09:02.642Z,12.17
2022-11-17T11:11:41.177Z,12.17
2022-11-17T11:14:16.690Z,11.95
2022-11-17T11:16:48.522Z,11.97
2022-11-17T11:19:18.494Z,11.85
2022-11-17T11:22:03.761Z,11.83
2022-11-17T11:24:38.575Z,11.70
2022-11-17T11:27:27.989Z,11.68
2022-11-17T11:30:02.748Z,11.57
2022-11-17T11:32:38.781Z,11.77
2022-11-17T11:35:28.405Z,11.85
2022-11-17T11:38:00.675Z,11.87
2022-11-17T11:40:30.827Z,11.87
2022-11-17T11:42:59.603Z,12.00
2022-11-17T11:45:43.800Z,12.05
2022-11-17T11:48:17.695Z,12.10
2022-11-17T11:50:53.228Z,12.09
2022-11-17T11:53:27.604Z,12.33
2022-11-17T11:56:06.583Z,12.26
2022-11-17T11:58:34.255Z,12.37
2022-11-17T12:01:05.418Z,12.21
2022-11-17T12:03:40.821Z,12.34
2022-11-17T12:06:33.527Z,12.25
2022-11-17T12:09:10.382Z,12.19
2022-11-17T12:11:57.423Z,12.31
2022-11-17T12:14:25.242Z,12.28
2022-11-17T12:17:02.062Z,12.27
2022-11-17T12:19:53.345Z,12.31
2022-11-17T12:22:53.583Z,12.15
2022-11-17T12:25:24.531Z,12.36
2022-11-17T12:27:53.722Z,12.41
2022-11-17T12:30:51.717Z,12.53
2022-11-17T12:33:19.443Z,12.58
2022-11-17T12:36:30.146Z,12.62
2022-11-17T12:38:59.344Z,12.80
2022-11-17T12:42:07.251Z,12.75
2022-11-17T12:44:49.616Z,12.79
2022-11-17T12:47:19.222Z,12.71
2022-11-17T12:49:56.417Z,12.64
2022-11-17T12:52:32.266Z,12.55
2022-11-17T12:55:04.393Z,12.39
2022-11-17T12:57:34.287Z,12.18
2022-11-17T13:00:09.848Z,12.21
2022-11-17T13:03:00.451Z,12.34
2022-11-17T13:05:30.060Z,12.27
2022-11-17T13:08:22.428Z,12.13
2022-11-17T13:10:50.414Z,12.26
2022-11-17T13:13:19.822Z,12.45
2022-11-17T13:15:50.582Z,12.73
2022-11-17T13:18:25.436Z,12.77
2022-11-17T13:20:53.111Z,12.85
2022-11-17T13:23:23.680Z,12.78
2022-11-17T13:25:52.330Z,12.65
2022-11-17T13:28:30.926Z,12.59
2022-11-17T13:30:59.260Z,12.54
2022-11-17T13:33:27.474Z,12.54
2022-11-17T13:36:10.168Z,12.36
2022-11-17T13:38:48.075Z,12.37
2022-11-17T13:41:16.836Z,12.39
2022-11-17T13:43:45.699Z,12.25
2022-11-17T13:46:13.739Z,12.21
2022-11-17T13:48:42.400Z,12.22
2022-11-17T13:51:24.567Z,12.21
2022-11-17T13:53:56.167Z,12.23
2022-11-17T13:56:32.668Z,12.11
2022-11-17T13:59:02.318Z,12.18
2022-11-17T14:01:31.526Z,12.15
2022-11-17T14:04:20.017Z,12.17
2022-11-17T14:06:59.518Z,12.11
2022-11-17T14:09:30.784Z,12.10
2022-11-17T14:11:58.827Z,12.01
2022-11-17T14:14:33.158Z,11.89
2022-11-17T14:17:11.781Z,11.81
2022-11-17T14:19:39.608Z,11.81
2022-11-17T14:22:31.050Z,11.77
2022-11-17T14:25:00.800Z,11.69
2022-11-17T14:27:40.675Z,11.62
2022-11-17T14:30:13.258Z,11.48
2022-11-17T14:32:41.037Z,11.59
2022-11-17T14:35:10.379Z,11.51
2022-11-17T14:37:38.243Z,11.39
2022-11-17T14:40:10.989Z,11.35
2022-11-17T14:42:41.287Z,11.25
2022-11-17T14:45:10.529Z,11.15
2022-11-17T14:47:38.153Z,11.13
2022-11-17T14:50:06.745Z,10.87
2022-11-17T14:52:34.522Z,10.83
2022-11-17T14:55:02.367Z,10.80
2022-11-17T14:57:31.568Z,10.67
2022-11-17T14:59:59.572Z,10.65
2022-11-17T15:02:27.269Z,10.58
2022-11-17T15:04:55.608Z,10.45
2022-11-17T15:07:23.919Z,10.47
2022-11-17T15:09:51.703Z,10.40
2022-11-17T15:12:19.371Z,10.25
2022-11-17T15:14:49.171Z,10.15
2022-11-17T15:17:17.250Z,10.20
2022-11-17T15:19:45.262Z,10.08
2022-11-17T15:22:13.012Z,10.08
2022-11-17T15:24:40.633Z,10.02
2022-11-17T15:27:08.669Z,10.16
2022-11-17T15:29:36.354Z,9.98
2022-11-17T15:32:05.586Z,9.89
2022-11-17T15:34:33.187Z,9.87
2022-11-17T15:37:00.788Z,9.84
2022-11-17T15:39:28.398Z,9.89
2022-11-17T15:41:56.001Z,9.84
2022-11-17T15:44:23.584Z,9.75
2022-11-17T15:46:51.210Z,9.80
2022-11-17T15:49:20.332Z,9.66
2022-11-17T15:51:48.003Z,9.63
2022-11-17T15:54:20.422Z,9.67
2022-11-17T15:56:49.062Z,9.60
2022-11-17T15:59:16.996Z,9.64
2022-11-17T16:01:44.913Z,9.48
2022-11-17T16:04:14.710Z,9.46
2022-11-17T16:06:45.167Z,9.47
2022-11-17T16:09:13.645Z,9.38
2022-11-17T16:11:41.637Z,9.39
2022-11-17T16:14:09.839Z,9.48
2022-11-17T16:16:39.279Z,9.47
2022-11-17T16:19:07.388Z,9.41
2022-11-17T16:21:35.302Z,9.42
2022-11-17T16:24:05.324Z,9.33
2022-11-17T16:26:33.180Z,9.38
2022-11-17T16:29:02.136Z,9.41
2022-11-17T16:31:31.850Z,9.29
2022-11-17T16:34:01.205Z,9.28
2022-11-17T16:36:35.969Z,9.14
2022-11-17T16:39:06.961Z,9.08
2022-11-17T16:41:35.872Z,9.17
2022-11-17T16:44:07.381Z,9.12
2022-11-17T16:46:35.030Z,9.10
2022-11-17T16:49:03.956Z,9.06
2022-11-17T16:51:31.623Z,9.00
2022-11-17T16:54:02.032Z,9.02
2022-11-17T16:56:31.491Z,9.10
2022-11-17T16:58:59.633Z,9.03
2022-11-17T17:01:28.596Z,8.99
2022-11-17T17:03:57.358Z,8.94
2022-11-17T17:06:25.225Z,8.85
2022-11-17T17:08:56.220Z,8.85
2022-11-17T17:11:24.172Z,8.77
2022-11-17T17:13:53.097Z,8.72
2022-11-17T17:16:21.347Z,8.66
2022-11-17T17:18:49.120Z,8.73
2022-11-17T17:21:18.076Z,8.72
2022-11-17T17:23:46.001Z,8.73
2022-11-17T17:26:16.769Z,8.71
2022-11-17T17:28:45.059Z,8.66
2022-11-17T17:31:21.063Z,8.68
2022-11-17T17:33:49.939Z,8.76
2022-11-17T17:36:19.305Z,8.82
2022-11-17T17:38:53.349Z,8.76
2022-11-17T17:41:23.898Z,8.78
2022-11-17T17:43:56.610Z,8.80
2022-11-17T17:46:26.302Z,8.74
2022-11-17T17:48:53.887Z,8.76
2022-11-17T17:51:24.851Z,8.77
2022-11-17T17:53:52.767Z,8.71
2022-11-17T17:56:21.940Z,8.79
2022-11-17T17:58:50.737Z,8.77
2022-11-17T18:01:20.479Z,8.73
2022-11-17T18:03:50.544Z,8.67
2022-11-17T18:06:20.180Z,8.77
2022-11-17T18:08:48.675Z,8.70
2022-11-17T18:11:18.147Z,8.69
2022-11-17T18:13:47.206Z,8.66
2022-11-17T18:16:16.492Z,8.70
2022-11-17T18:18:45.509Z,8.70
2022-11-17T18:21:15.376Z,8.68
2022-11-17T18:23:43.372Z,8.68
2022-11-17T18:26:12.668Z,8.68
2022-11-17T18:28:40.515Z,8.68
2022-11-17T18:31:08.889Z,8.63
2022-11-17T18:33:37.112Z,8.66
2022-11-17T18:36:06.617Z,8.64
2022-11-17T18:38:36.891Z,8.59
2022-11-17T18:41:06.407Z,8.60
2022-11-17T18:43:34.579Z,8.64
2022-11-17T18:46:04.240Z,8.69
2022-11-17T18:48:33.282Z,8.66
2022-11-17T18:51:18.764Z,8.46
2022-11-17T18:53:48.744Z,8.59
2022-11-17T18:56:17.917Z,8.63
2022-11-17T18:58:45.552Z,8.64
2022-11-17T19:01:14.777Z,8.71
2022-11-17T19:03:44.071Z,8.62
2022-11-17T19:06:12.567Z,8.60
2022-11-17T19:08:40.307Z,8.70
2022-11-17T19:11:10.653Z,8.64
2022-11-17T19:13:40.021Z,8.57
2022-11-17T19:16:10.103Z,8.51
2022-11-17T19:18:37.981Z,8.60
2022-11-17T19:21:06.730Z,8.58
2022-11-17T19:23:34.963Z,8.56
2022-11-17T19:26:05.241Z,8.54
2022-11-17T19:28:34.439Z,8.48
2022-11-17T19:31:03.175Z,8.54
2022-11-17T19:33:32.178Z,8.54
2022-11-17T19:36:03.875Z,8.65
2022-11-17T19:38:33.686Z,8.56
2022-11-17T19:41:04.883Z,8.45
2022-11-17T19:43:34.514Z,8.44
2022-11-17T19:46:03.907Z,8.41
2022-11-17T19:48:32.426Z,8.46
2022-11-17T19:51:00.888Z,8.44
2022-11-17T19:53:29.062Z,8.55
2022-11-17T19:55:57.053Z,8.61
2022-11-17T19:58:24.642Z,8.51
2022-11-17T20:00:53.687Z,8.56
2022-11-17T20:03:21.324Z,8.52
2022-11-17T20:05:48.958Z,8.56
2022-11-17T20:08:16.580Z,8.51
2022-11-17T20:10:44.307Z,8.47
2022-11-17T20:13:11.895Z,8.48
2022-11-17T20:15:39.574Z,8.44
2022-11-17T20:18:08.581Z,8.45
2022-11-17T20:20:37.548Z,8.38
2022-11-17T20:23:05.334Z,8.33
2022-11-17T20:25:33.011Z,8.39
2022-11-17T20:28:00.731Z,8.23
2022-11-17T20:30:28.496Z,8.17
2022-11-17T20:32:56.101Z,8.16
2022-11-17T20:35:25.094Z,8.08
2022-11-17T20:37:52.805Z,8.03
2022-11-17T20:40:20.403Z,8.06
2022-11-17T20:42:48.068Z,8.03
2022-11-17T20:45:15.895Z,8.08
2022-11-17T20:47:43.518Z,8.04
2022-11-17T20:50:11.109Z,8.02
2022-11-17T20:52:40.315Z,7.92
2022-11-17T20:55:08.799Z,7.86
2022-11-17T20:57:36.427Z,7.81
2022-11-17T21:00:04.800Z,7.78
2022-11-17T21:02:32.393Z,7.76
2022-11-17T21:04:59.988Z,7.73
2022-11-17T21:07:27.625Z,7.76
2022-11-17T21:09:59.446Z,7.78
2022-11-17T21:12:27.155Z,7.75
2022-11-17T21:14:54.720Z,7.42
2022-11-17T21:17:39.835Z,7.34
2022-11-17T21:20:08.148Z,7.40
2022-11-17T21:22:35.781Z,7.45
2022-11-17T21:25:05.310Z,7.52
2022-11-17T21:27:32.945Z,7.58
2022-11-17T21:30:00.520Z,7.59
2022-11-17T21:32:28.158Z,7.60
2022-11-17T21:34:57.359Z,7.58
2022-11-17T21:37:27.144Z,7.58
2022-11-17T21:39:54.890Z,7.65
2022-11-17T21:42:23.875Z,7.65
2022-11-17T21:44:51.473Z,7.71
2022-11-17T21:47:20.036Z,7.76
2022-11-17T21:49:47.663Z,7.85
2022-11-17T21:52:15.298Z,7.88
2022-11-17T21:54:42.904Z,7.88
2022-11-17T21:57:10.558Z,7.90
2022-11-17T21:59:39.555Z,7.93
2022-11-17T22:02:07.198Z,7.96
2022-11-17T22:04:34.838Z,8.01
2022-11-17T22:07:02.568Z,8.04
2022-11-17T22:09:30.340Z,8.05
2022-11-17T22:11:58.473Z,8.04
2022-11-17T22:14:26.155Z,8.07
2022-11-17T22:16:56.348Z,8.07
2022-11-17T22:19:25.488Z,8.02
2022-11-17T22:21:54.429Z,8.08
2022-11-17T22:24:22.161Z,8.05
2022-11-17T22:26:51.532Z,8.03
2022-11-17T22:29:21.068Z,7.92
2022-11-17T22:31:49.632Z,7.91
2022-11-17T22:34:19.549Z,7.83
2022-11-17T22:36:47.303Z,7.86
2022-11-17T22:39:15.325Z,7.88
2022-11-17T22:41:43.320Z,7.83
2022-11-17T22:44:13.825Z,7.87
2022-11-17T22:46:43.052Z,7.87
2022-11-17T22:49:10.939Z,7.71
2022-11-17T22:51:57.440Z,7.75
2022-11-17T22:54:25.058Z,7.73
2022-11-17T22:56:52.660Z,7.66
2022-11-17T22:59:20.811Z,7.72
2022-11-17T23:01:48.448Z,7.67
2022-11-17T23:04:16.392Z,7.62
2022-11-17T23:06:45.483Z,7.67
2022-11-17T23:09:13.862Z,7.75
2022-11-17T23:11:42.233Z,7.66
2022-11-17T23:14:15.214Z,7.66
2022-11-17T23:16:43.682Z,7.57
2022-11-17T23:19:13.648Z,7.62
2022-11-17T23:21:41.766Z,7.68
2022-11-17T23:24:12.820Z,7.66
2022-11-17T23:26:41.023Z,7.62
2022-11-17T23:29:09.283Z,7.63
2022-11-17T23:31:36.915Z,7.69
2022-11-17T23:34:12.562Z,7.66
2022-11-17T23:36:41.277Z,7.66
2022-11-17T23:39:11.022Z,7.65
2022-11-17T23:41:38.810Z,7.64
2022-11-17T23:44:06.795Z,7.66
2022-11-17T23:46:34.408Z,7.67
2022-11-17T23:49:02.121Z,7.70
2022-11-17T23:51:30.001Z,7.67
2022-11-17T23:53:59.671Z,7.73
2022-11-17T23:56:29.305Z,7.71
2022-11-17T23:58:59.624Z,7.78
